sensor_id;sensor_type;location;lat;lon;timestamp;P1;durP1;ratioP1;P2;durP2;ratioP2
77332;SDS011;66408;51.326;12.070;2023-07-28T00:01:56;1.50;;;0.70;;
77332;SDS011;66408;51.326;12.070;2023-07-28T00:04:23;1.35;;;0.60;;
77332;SDS011;66408;51.326;12.070;2023-07-28T00:06:50;0.57;;;0.47;;
77332;SDS011;66408;51.326;12.070;2023-07-28T00:09:17;1.48;;;0.70;;
77332;SDS011;66408;51.326;12.070;2023-07-28T00:11:43;1.90;;;0.65;;
77332;SDS011;66408;51.326;12.070;2023-07-28T00:14:11;2.97;;;0.70;;
77332;SDS011;66408;51.326;12.070;2023-07-28T00:16:38;1.05;;;0.60;;
77332;SDS011;66408;51.326;12.070;2023-07-28T00:19:04;1.08;;;0.60;;
77332;SDS011;66408;51.326;12.070;2023-07-28T00:21:31;0.65;;;0.30;;
77332;SDS011;66408;51.326;12.070;2023-07-28T00:23:58;1.40;;;0.55;;
77332;SDS011;66408;51.326;12.070;2023-07-28T00:26:25;3.15;;;0.57;;
77332;SDS011;66408;51.326;12.070;2023-07-28T00:28:51;2.83;;;0.40;;
77332;SDS011;66408;51.326;12.070;2023-07-28T00:31:18;2.42;;;0.47;;
77332;SDS011;66408;51.326;12.070;2023-07-28T00:33:45;1.70;;;0.43;;
77332;SDS011;66408;51.326;12.070;2023-07-28T00:36:11;2.88;;;0.47;;
77332;SDS011;66408;51.326;12.070;2023-07-28T00:38:38;1.63;;;0.60;;
77332;SDS011;66408;51.326;12.070;2023-07-28T00:41:05;0.75;;;0.40;;
77332;SDS011;66408;51.326;12.070;2023-07-28T00:43:31;1.83;;;0.80;;
77332;SDS011;66408;51.326;12.070;2023-07-28T00:45:58;1.13;;;0.57;;
77332;SDS011;66408;51.326;12.070;2023-07-28T00:48:24;1.75;;;0.50;;
77332;SDS011;66408;51.326;12.070;2023-07-28T00:50:52;1.88;;;0.77;;
77332;SDS011;66408;51.326;12.070;2023-07-28T00:53:20;0.98;;;0.50;;
77332;SDS011;66408;51.326;12.070;2023-07-28T00:55:49;1.02;;;0.50;;
77332;SDS011;66408;51.326;12.070;2023-07-28T00:58:17;1.73;;;0.68;;
77332;SDS011;66408;51.326;12.070;2023-07-28T01:00:44;1.42;;;0.57;;
77332;SDS011;66408;51.326;12.070;2023-07-28T01:03:11;1.05;;;0.57;;
77332;SDS011;66408;51.326;12.070;2023-07-28T01:05:48;1.35;;;0.50;;
77332;SDS011;66408;51.326;12.070;2023-07-28T01:08:34;0.93;;;0.40;;
77332;SDS011;66408;51.326;12.070;2023-07-28T01:11:15;2.42;;;0.50;;
77332;SDS011;66408;51.326;12.070;2023-07-28T01:13:42;3.63;;;0.80;;
77332;SDS011;66408;51.326;12.070;2023-07-28T01:16:08;0.90;;;0.47;;
77332;SDS011;66408;51.326;12.070;2023-07-28T01:18:35;1.23;;;0.30;;
77332;SDS011;66408;51.326;12.070;2023-07-28T01:21:03;1.48;;;0.30;;
77332;SDS011;66408;51.326;12.070;2023-07-28T01:26:45;1.92;;;0.60;;
77332;SDS011;66408;51.326;12.070;2023-07-28T01:29:12;3.10;;;0.60;;
77332;SDS011;66408;51.326;12.070;2023-07-28T01:31:41;1.40;;;0.68;;
77332;SDS011;66408;51.326;12.070;2023-07-28T01:34:09;1.45;;;0.43;;
77332;SDS011;66408;51.326;12.070;2023-07-28T01:36:35;1.73;;;0.60;;
77332;SDS011;66408;51.326;12.070;2023-07-28T01:39:02;2.55;;;0.70;;
77332;SDS011;66408;51.326;12.070;2023-07-28T01:41:29;0.98;;;0.57;;
77332;SDS011;66408;51.326;12.070;2023-07-28T01:43:56;1.00;;;0.50;;
77332;SDS011;66408;51.326;12.070;2023-07-28T01:46:24;0.73;;;0.45;;
77332;SDS011;66408;51.326;12.070;2023-07-28T01:48:51;1.98;;;0.60;;
77332;SDS011;66408;51.326;12.070;2023-07-28T01:51:18;0.73;;;0.50;;
77332;SDS011;66408;51.326;12.070;2023-07-28T01:53:44;0.70;;;0.43;;
77332;SDS011;66408;51.326;12.070;2023-07-28T01:56:11;1.83;;;0.50;;
77332;SDS011;66408;51.326;12.070;2023-07-28T01:58:38;2.35;;;0.70;;
77332;SDS011;66408;51.326;12.070;2023-07-28T02:01:05;1.60;;;0.80;;
77332;SDS011;66408;51.326;12.070;2023-07-28T02:03:31;0.80;;;0.50;;
77332;SDS011;66408;51.326;12.070;2023-07-28T02:05:58;0.80;;;0.40;;
77332;SDS011;66408;51.326;12.070;2023-07-28T02:08:25;2.03;;;0.52;;
77332;SDS011;66408;51.326;12.070;2023-07-28T02:10:53;1.60;;;0.57;;
77332;SDS011;66408;51.326;12.070;2023-07-28T02:13:19;0.55;;;0.50;;
77332;SDS011;66408;51.326;12.070;2023-07-28T02:15:46;1.00;;;0.55;;
77332;SDS011;66408;51.326;12.070;2023-07-28T02:18:13;1.00;;;0.52;;
77332;SDS011;66408;51.326;12.070;2023-07-28T02:20:40;0.70;;;0.40;;
77332;SDS011;66408;51.326;12.070;2023-07-28T02:23:07;2.75;;;0.50;;
77332;SDS011;66408;51.326;12.070;2023-07-28T02:25:34;0.82;;;0.43;;
77332;SDS011;66408;51.326;12.070;2023-07-28T02:28:01;0.80;;;0.60;;
77332;SDS011;66408;51.326;12.070;2023-07-28T02:30:27;2.88;;;0.63;;
77332;SDS011;66408;51.326;12.070;2023-07-28T02:32:54;1.90;;;0.60;;
77332;SDS011;66408;51.326;12.070;2023-07-28T02:35:21;1.30;;;0.60;;
77332;SDS011;66408;51.326;12.070;2023-07-28T02:37:47;1.70;;;0.60;;
77332;SDS011;66408;51.326;12.070;2023-07-28T02:40:14;0.77;;;0.40;;
77332;SDS011;66408;51.326;12.070;2023-07-28T02:42:41;2.05;;;0.45;;
77332;SDS011;66408;51.326;12.070;2023-07-28T02:45:08;3.55;;;0.60;;
77332;SDS011;66408;51.326;12.070;2023-07-28T02:47:36;0.38;;;0.35;;
77332;SDS011;66408;51.326;12.070;2023-07-28T02:50:04;2.08;;;0.40;;
77332;SDS011;66408;51.326;12.070;2023-07-28T02:52:31;1.30;;;0.60;;
77332;SDS011;66408;51.326;12.070;2023-07-28T02:54:58;1.17;;;0.65;;
77332;SDS011;66408;51.326;12.070;2023-07-28T02:57:24;1.10;;;0.50;;
77332;SDS011;66408;51.326;12.070;2023-07-28T02:59:51;1.25;;;0.50;;
77332;SDS011;66408;51.326;12.070;2023-07-28T03:02:18;1.27;;;0.57;;
77332;SDS011;66408;51.326;12.070;2023-07-28T03:04:45;1.88;;;0.50;;
77332;SDS011;66408;51.326;12.070;2023-07-28T03:07:11;0.75;;;0.50;;
77332;SDS011;66408;51.326;12.070;2023-07-28T03:09:38;0.98;;;0.60;;
77332;SDS011;66408;51.326;12.070;2023-07-28T03:12:05;1.17;;;0.60;;
77332;SDS011;66408;51.326;12.070;2023-07-28T03:14:33;1.00;;;0.50;;
77332;SDS011;66408;51.326;12.070;2023-07-28T03:16:59;1.88;;;0.35;;
77332;SDS011;66408;51.326;12.070;2023-07-28T03:19:26;1.35;;;0.47;;
77332;SDS011;66408;51.326;12.070;2023-07-28T03:21:52;2.70;;;0.60;;
77332;SDS011;66408;51.326;12.070;2023-07-28T03:24:19;0.63;;;0.50;;
77332;SDS011;66408;51.326;12.070;2023-07-28T03:26:46;2.38;;;0.50;;
77332;SDS011;66408;51.326;12.070;2023-07-28T03:29:18;1.05;;;0.50;;
77332;SDS011;66408;51.326;12.070;2023-07-28T03:31:48;1.42;;;0.73;;
77332;SDS011;66408;51.326;12.070;2023-07-28T03:34:18;0.82;;;0.50;;
77332;SDS011;66408;51.326;12.070;2023-07-28T03:36:49;0.98;;;0.52;;
77332;SDS011;66408;51.326;12.070;2023-07-28T03:43:03;1.35;;;0.70;;
77332;SDS011;66408;51.326;12.070;2023-07-28T03:45:29;1.00;;;0.43;;
77332;SDS011;66408;51.326;12.070;2023-07-28T03:47:56;2.03;;;0.50;;
77332;SDS011;66408;51.326;12.070;2023-07-28T03:50:22;2.55;;;0.43;;
77332;SDS011;66408;51.326;12.070;2023-07-28T03:52:50;1.58;;;0.43;;
77332;SDS011;66408;51.326;12.070;2023-07-28T03:55:17;1.05;;;0.40;;
77332;SDS011;66408;51.326;12.070;2023-07-28T03:57:43;1.25;;;0.40;;
77332;SDS011;66408;51.326;12.070;2023-07-28T04:00:10;2.45;;;0.40;;
77332;SDS011;66408;51.326;12.070;2023-07-28T04:02:37;1.05;;;0.50;;
77332;SDS011;66408;51.326;12.070;2023-07-28T04:05:04;1.10;;;0.50;;
77332;SDS011;66408;51.326;12.070;2023-07-28T04:07:31;1.33;;;0.50;;
77332;SDS011;66408;51.326;12.070;2023-07-28T04:09:57;1.08;;;0.50;;
77332;SDS011;66408;51.326;12.070;2023-07-28T04:12:24;1.77;;;0.57;;
77332;SDS011;66408;51.326;12.070;2023-07-28T04:14:50;1.20;;;0.52;;
77332;SDS011;66408;51.326;12.070;2023-07-28T04:17:17;1.85;;;0.50;;
77332;SDS011;66408;51.326;12.070;2023-07-28T04:19:44;2.35;;;0.55;;
77332;SDS011;66408;51.326;12.070;2023-07-28T04:22:10;0.90;;;0.60;;
77332;SDS011;66408;51.326;12.070;2023-07-28T04:24:37;1.15;;;0.52;;
77332;SDS011;66408;51.326;12.070;2023-07-28T04:27:03;0.90;;;0.50;;
77332;SDS011;66408;51.326;12.070;2023-07-28T04:29:31;1.25;;;0.60;;
77332;SDS011;66408;51.326;12.070;2023-07-28T04:31:58;1.80;;;0.80;;
77332;SDS011;66408;51.326;12.070;2023-07-28T04:34:27;1.65;;;0.52;;
77332;SDS011;66408;51.326;12.070;2023-07-28T04:36:53;0.68;;;0.50;;
77332;SDS011;66408;51.326;12.070;2023-07-28T04:39:20;1.63;;;0.50;;
77332;SDS011;66408;51.326;12.070;2023-07-28T04:41:47;0.98;;;0.50;;
77332;SDS011;66408;51.326;12.070;2023-07-28T04:44:13;1.63;;;0.60;;
77332;SDS011;66408;51.326;12.070;2023-07-28T04:46:40;1.33;;;0.40;;
77332;SDS011;66408;51.326;12.070;2023-07-28T04:49:07;1.70;;;0.50;;
77332;SDS011;66408;51.326;12.070;2023-07-28T04:51:33;1.20;;;0.50;;
77332;SDS011;66408;51.326;12.070;2023-07-28T04:54:00;2.08;;;0.50;;
77332;SDS011;66408;51.326;12.070;2023-07-28T04:56:26;1.35;;;0.50;;
77332;SDS011;66408;51.326;12.070;2023-07-28T04:58:53;1.58;;;0.40;;
77332;SDS011;66408;51.326;12.070;2023-07-28T05:01:33;1.92;;;0.50;;
77332;SDS011;66408;51.326;12.070;2023-07-28T05:04:00;0.82;;;0.40;;
77332;SDS011;66408;51.326;12.070;2023-07-28T05:06:27;0.70;;;0.45;;
77332;SDS011;66408;51.326;12.070;2023-07-28T05:08:53;0.95;;;0.40;;
77332;SDS011;66408;51.326;12.070;2023-07-28T05:11:20;1.48;;;0.40;;
77332;SDS011;66408;51.326;12.070;2023-07-28T05:13:47;0.85;;;0.40;;
77332;SDS011;66408;51.326;12.070;2023-07-28T05:16:13;2.35;;;0.50;;
77332;SDS011;66408;51.326;12.070;2023-07-28T05:18:40;1.40;;;0.40;;
77332;SDS011;66408;51.326;12.070;2023-07-28T05:21:09;0.85;;;0.40;;
77332;SDS011;66408;51.326;12.070;2023-07-28T05:23:35;1.20;;;0.32;;
77332;SDS011;66408;51.326;12.070;2023-07-28T05:26:01;0.57;;;0.28;;
77332;SDS011;66408;51.326;12.070;2023-07-28T05:28:28;1.30;;;0.40;;
77332;SDS011;66408;51.326;12.070;2023-07-28T05:31:02;1.05;;;0.40;;
77332;SDS011;66408;51.326;12.070;2023-07-28T05:33:30;0.85;;;0.40;;
77332;SDS011;66408;51.326;12.070;2023-07-28T05:36:03;0.82;;;0.47;;
77332;SDS011;66408;51.326;12.070;2023-07-28T05:38:31;0.40;;;0.30;;
77332;SDS011;66408;51.326;12.070;2023-07-28T05:40:59;1.67;;;0.30;;
77332;SDS011;66408;51.326;12.070;2023-07-28T05:43:33;1.05;;;0.40;;
77332;SDS011;66408;51.326;12.070;2023-07-28T05:46:00;1.27;;;0.40;;
77332;SDS011;66408;51.326;12.070;2023-07-28T05:48:27;0.52;;;0.30;;
77332;SDS011;66408;51.326;12.070;2023-07-28T05:50:53;0.45;;;0.20;;
77332;SDS011;66408;51.326;12.070;2023-07-28T05:53:20;2.33;;;0.60;;
77332;SDS011;66408;51.326;12.070;2023-07-28T05:55:47;1.15;;;0.30;;
77332;SDS011;66408;51.326;12.070;2023-07-28T05:58:15;0.60;;;0.40;;
77332;SDS011;66408;51.326;12.070;2023-07-28T06:00:41;0.52;;;0.30;;
77332;SDS011;66408;51.326;12.070;2023-07-28T06:03:11;0.68;;;0.30;;
77332;SDS011;66408;51.326;12.070;2023-07-28T06:05:39;1.05;;;0.40;;
77332;SDS011;66408;51.326;12.070;2023-07-28T06:08:06;0.90;;;0.40;;
77332;SDS011;66408;51.326;12.070;2023-07-28T06:10:33;0.77;;;0.40;;
77332;SDS011;66408;51.326;12.070;2023-07-28T06:13:00;0.95;;;0.35;;
77332;SDS011;66408;51.326;12.070;2023-07-28T06:15:27;1.30;;;0.45;;
77332;SDS011;66408;51.326;12.070;2023-07-28T06:17:54;0.63;;;0.30;;
77332;SDS011;66408;51.326;12.070;2023-07-28T06:20:20;0.85;;;0.50;;
77332;SDS011;66408;51.326;12.070;2023-07-28T06:22:47;0.80;;;0.30;;
77332;SDS011;66408;51.326;12.070;2023-07-28T06:25:13;1.67;;;0.47;;
77332;SDS011;66408;51.326;12.070;2023-07-28T06:27:40;2.45;;;0.50;;
77332;SDS011;66408;51.326;12.070;2023-07-28T06:30:06;0.60;;;0.30;;
77332;SDS011;66408;51.326;12.070;2023-07-28T06:32:33;0.85;;;0.45;;
77332;SDS011;66408;51.326;12.070;2023-07-28T06:35:00;0.80;;;0.50;;
77332;SDS011;66408;51.326;12.070;2023-07-28T06:37:27;0.47;;;0.30;;
77332;SDS011;66408;51.326;12.070;2023-07-28T06:39:53;0.70;;;0.38;;
77332;SDS011;66408;51.326;12.070;2023-07-28T06:42:22;0.80;;;0.40;;
77332;SDS011;66408;51.326;12.070;2023-07-28T06:44:50;2.15;;;0.50;;
77332;SDS011;66408;51.326;12.070;2023-07-28T06:47:17;0.43;;;0.30;;
77332;SDS011;66408;51.326;12.070;2023-07-28T06:49:44;1.10;;;0.43;;
77332;SDS011;66408;51.326;12.070;2023-07-28T06:52:11;2.45;;;0.40;;
77332;SDS011;66408;51.326;12.070;2023-07-28T06:54:38;2.08;;;0.47;;
77332;SDS011;66408;51.326;12.070;2023-07-28T06:57:05;0.82;;;0.40;;
77332;SDS011;66408;51.326;12.070;2023-07-28T06:59:32;1.23;;;0.43;;
77332;SDS011;66408;51.326;12.070;2023-07-28T07:01:59;0.68;;;0.40;;
77332;SDS011;66408;51.326;12.070;2023-07-28T07:04:26;0.57;;;0.30;;
77332;SDS011;66408;51.326;12.070;2023-07-28T07:06:52;0.75;;;0.60;;
77332;SDS011;66408;51.326;12.070;2023-07-28T07:09:19;0.80;;;0.30;;
77332;SDS011;66408;51.326;12.070;2023-07-28T07:11:46;1.10;;;0.40;;
77332;SDS011;66408;51.326;12.070;2023-07-28T07:14:12;0.70;;;0.50;;
77332;SDS011;66408;51.326;12.070;2023-07-28T07:16:40;1.73;;;0.50;;
77332;SDS011;66408;51.326;12.070;2023-07-28T07:19:07;1.92;;;0.50;;
77332;SDS011;66408;51.326;12.070;2023-07-28T07:21:35;0.60;;;0.40;;
77332;SDS011;66408;51.326;12.070;2023-07-28T07:24:02;1.50;;;0.50;;
77332;SDS011;66408;51.326;12.070;2023-07-28T07:26:30;1.00;;;0.60;;
77332;SDS011;66408;51.326;12.070;2023-07-28T07:28:57;0.88;;;0.50;;
77332;SDS011;66408;51.326;12.070;2023-07-28T07:31:24;2.15;;;0.60;;
77332;SDS011;66408;51.326;12.070;2023-07-28T07:33:51;1.00;;;0.60;;
77332;SDS011;66408;51.326;12.070;2023-07-28T07:36:18;0.60;;;0.40;;
77332;SDS011;66408;51.326;12.070;2023-07-28T07:38:45;2.15;;;0.43;;
77332;SDS011;66408;51.326;12.070;2023-07-28T07:41:13;1.80;;;0.60;;
77332;SDS011;66408;51.326;12.070;2023-07-28T07:43:46;0.93;;;0.50;;
77332;SDS011;66408;51.326;12.070;2023-07-28T07:46:14;0.65;;;0.40;;
77332;SDS011;66408;51.326;12.070;2023-07-28T07:48:41;0.93;;;0.50;;
77332;SDS011;66408;51.326;12.070;2023-07-28T07:51:08;1.60;;;0.60;;
77332;SDS011;66408;51.326;12.070;2023-07-28T07:53:35;1.13;;;0.80;;
77332;SDS011;66408;51.326;12.070;2023-07-28T07:56:04;0.50;;;0.50;;
77332;SDS011;66408;51.326;12.070;2023-07-28T07:58:31;1.70;;;0.52;;
77332;SDS011;66408;51.326;12.070;2023-07-28T08:00:59;1.15;;;0.57;;
77332;SDS011;66408;51.326;12.070;2023-07-28T08:03:25;0.60;;;0.40;;
77332;SDS011;66408;51.326;12.070;2023-07-28T08:05:53;0.70;;;0.50;;
77332;SDS011;66408;51.326;12.070;2023-07-28T08:08:20;0.45;;;0.45;;
77332;SDS011;66408;51.326;12.070;2023-07-28T08:10:47;0.52;;;0.50;;
77332;SDS011;66408;51.326;12.070;2023-07-28T08:13:14;0.95;;;0.60;;
77332;SDS011;66408;51.326;12.070;2023-07-28T08:15:44;0.75;;;0.57;;
77332;SDS011;66408;51.326;12.070;2023-07-28T08:18:12;0.77;;;0.60;;
77332;SDS011;66408;51.326;12.070;2023-07-28T08:20:39;1.33;;;0.60;;
77332;SDS011;66408;51.326;12.070;2023-07-28T08:23:06;2.03;;;0.88;;
77332;SDS011;66408;51.326;12.070;2023-07-28T08:25:33;0.63;;;0.50;;
77332;SDS011;66408;51.326;12.070;2023-07-28T08:28:00;0.90;;;0.60;;
77332;SDS011;66408;51.326;12.070;2023-07-28T08:30:27;1.35;;;0.70;;
77332;SDS011;66408;51.326;12.070;2023-07-28T08:32:54;1.13;;;0.47;;
77332;SDS011;66408;51.326;12.070;2023-07-28T08:35:20;1.60;;;0.93;;
77332;SDS011;66408;51.326;12.070;2023-07-28T08:37:47;1.00;;;0.77;;
77332;SDS011;66408;51.326;12.070;2023-07-28T08:40:14;1.38;;;0.60;;
77332;SDS011;66408;51.326;12.070;2023-07-28T08:42:40;0.93;;;0.60;;
77332;SDS011;66408;51.326;12.070;2023-07-28T08:45:07;1.10;;;0.80;;
77332;SDS011;66408;51.326;12.070;2023-07-28T08:47:35;1.48;;;0.70;;
77332;SDS011;66408;51.326;12.070;2023-07-28T08:50:02;1.27;;;0.77;;
77332;SDS011;66408;51.326;12.070;2023-07-28T08:52:29;1.17;;;0.88;;
77332;SDS011;66408;51.326;12.070;2023-07-28T08:54:56;1.50;;;0.80;;
77332;SDS011;66408;51.326;12.070;2023-07-28T08:57:22;1.55;;;0.80;;
77332;SDS011;66408;51.326;12.070;2023-07-28T08:59:50;1.02;;;0.70;;
77332;SDS011;66408;51.326;12.070;2023-07-28T09:02:18;0.90;;;0.70;;
77332;SDS011;66408;51.326;12.070;2023-07-28T09:07:13;1.73;;;1.00;;
77332;SDS011;66408;51.326;12.070;2023-07-28T09:09:41;1.27;;;0.80;;
77332;SDS011;66408;51.326;12.070;2023-07-28T09:12:08;2.08;;;0.70;;
77332;SDS011;66408;51.326;12.070;2023-07-28T09:14:35;1.27;;;0.80;;
77332;SDS011;66408;51.326;12.070;2023-07-28T09:17:09;1.20;;;0.68;;
77332;SDS011;66408;51.326;12.070;2023-07-28T09:22:21;1.05;;;0.88;;
77332;SDS011;66408;51.326;12.070;2023-07-28T09:24:49;0.70;;;0.57;;
77332;SDS011;66408;51.326;12.070;2023-07-28T09:27:20;0.95;;;0.70;;
77332;SDS011;66408;51.326;12.070;2023-07-28T09:29:49;0.88;;;0.68;;
77332;SDS011;66408;51.326;12.070;2023-07-28T09:32:17;0.80;;;0.70;;
77332;SDS011;66408;51.326;12.070;2023-07-28T09:35:08;0.80;;;0.60;;
77332;SDS011;66408;51.326;12.070;2023-07-28T09:37:37;0.93;;;0.73;;
77332;SDS011;66408;51.326;12.070;2023-07-28T09:40:07;3.10;;;1.20;;
77332;SDS011;66408;51.326;12.070;2023-07-28T09:42:38;1.08;;;0.77;;
77332;SDS011;66408;51.326;12.070;2023-07-28T09:45:05;1.15;;;0.70;;
77332;SDS011;66408;51.326;12.070;2023-07-28T09:47:41;1.95;;;0.63;;
77332;SDS011;66408;51.326;12.070;2023-07-28T09:50:11;1.75;;;0.80;;
77332;SDS011;66408;51.326;12.070;2023-07-28T09:52:48;1.70;;;0.90;;
77332;SDS011;66408;51.326;12.070;2023-07-28T09:55:19;2.00;;;0.70;;
77332;SDS011;66408;51.326;12.070;2023-07-28T09:57:50;2.95;;;1.00;;
77332;SDS011;66408;51.326;12.070;2023-07-28T10:00:20;1.92;;;0.80;;
77332;SDS011;66408;51.326;12.070;2023-07-28T10:02:50;1.00;;;0.70;;
77332;SDS011;66408;51.326;12.070;2023-07-28T10:05:17;1.20;;;0.80;;
77332;SDS011;66408;51.326;12.070;2023-07-28T10:07:44;1.38;;;0.80;;
77332;SDS011;66408;51.326;12.070;2023-07-28T10:10:13;1.40;;;1.00;;
77332;SDS011;66408;51.326;12.070;2023-07-28T10:15:19;1.92;;;0.80;;
77332;SDS011;66408;51.326;12.070;2023-07-28T10:17:51;0.77;;;0.65;;
77332;SDS011;66408;51.326;12.070;2023-07-28T10:23:07;1.52;;;0.95;;
77332;SDS011;66408;51.326;12.070;2023-07-28T10:25:34;1.85;;;1.00;;
77332;SDS011;66408;51.326;12.070;2023-07-28T10:28:46;2.03;;;1.00;;
77332;SDS011;66408;51.326;12.070;2023-07-28T10:31:10;1.42;;;0.73;;
77332;SDS011;66408;51.326;12.070;2023-07-28T10:33:38;0.80;;;0.70;;
77332;SDS011;66408;51.326;12.070;2023-07-28T10:38:59;1.20;;;0.85;;
77332;SDS011;66408;51.326;12.070;2023-07-28T10:41:37;1.48;;;0.70;;
77332;SDS011;66408;51.326;12.070;2023-07-28T10:44:03;2.88;;;0.93;;
77332;SDS011;66408;51.326;12.070;2023-07-28T10:46:31;2.10;;;1.38;;
77332;SDS011;66408;51.326;12.070;2023-07-28T10:49:04;3.00;;;0.80;;
77332;SDS011;66408;51.326;12.070;2023-07-28T10:51:31;1.50;;;0.80;;
77332;SDS011;66408;51.326;12.070;2023-07-28T10:54:00;1.20;;;0.82;;
77332;SDS011;66408;51.326;12.070;2023-07-28T10:56:30;1.67;;;0.70;;
77332;SDS011;66408;51.326;12.070;2023-07-28T10:59:00;1.27;;;0.80;;
77332;SDS011;66408;51.326;12.070;2023-07-28T11:01:33;1.42;;;0.90;;
77332;SDS011;66408;51.326;12.070;2023-07-28T11:04:11;0.82;;;0.63;;
77332;SDS011;66408;51.326;12.070;2023-07-28T11:06:38;1.80;;;1.13;;
77332;SDS011;66408;51.326;12.070;2023-07-28T11:09:07;1.20;;;0.70;;
77332;SDS011;66408;51.326;12.070;2023-07-28T11:11:39;1.52;;;0.80;;
77332;SDS011;66408;51.326;12.070;2023-07-28T11:14:10;1.30;;;0.80;;
77332;SDS011;66408;51.326;12.070;2023-07-28T11:16:40;2.10;;;0.70;;
77332;SDS011;66408;51.326;12.070;2023-07-28T11:19:11;1.73;;;0.90;;
77332;SDS011;66408;51.326;12.070;2023-07-28T11:21:40;1.15;;;0.80;;
77332;SDS011;66408;51.326;12.070;2023-07-28T11:24:08;1.70;;;0.93;;
77332;SDS011;66408;51.326;12.070;2023-07-28T11:26:36;1.10;;;0.82;;
77332;SDS011;66408;51.326;12.070;2023-07-28T11:29:04;1.10;;;0.90;;
77332;SDS011;66408;51.326;12.070;2023-07-28T11:31:32;1.25;;;0.90;;
77332;SDS011;66408;51.326;12.070;2023-07-28T11:33:59;1.50;;;0.98;;
77332;SDS011;66408;51.326;12.070;2023-07-28T11:36:27;3.00;;;0.90;;
77332;SDS011;66408;51.326;12.070;2023-07-28T11:39:13;1.30;;;0.90;;
77332;SDS011;66408;51.326;12.070;2023-07-28T11:41:42;1.60;;;0.70;;
77332;SDS011;66408;51.326;12.070;2023-07-28T11:44:10;2.35;;;0.82;;
77332;SDS011;66408;51.326;12.070;2023-07-28T11:46:38;1.38;;;1.00;;
77332;SDS011;66408;51.326;12.070;2023-07-28T11:49:16;2.08;;;1.10;;
77332;SDS011;66408;51.326;12.070;2023-07-28T11:51:52;0.82;;;0.70;;
77332;SDS011;66408;51.326;12.070;2023-07-28T11:54:21;1.45;;;1.00;;
77332;SDS011;66408;51.326;12.070;2023-07-28T11:59:16;0.63;;;0.63;;
77332;SDS011;66408;51.326;12.070;2023-07-28T12:12:15;1.95;;;0.90;;
77332;SDS011;66408;51.326;12.070;2023-07-28T12:14:47;0.95;;;0.80;;
77332;SDS011;66408;51.326;12.070;2023-07-28T12:17:33;1.10;;;0.90;;
77332;SDS011;66408;51.326;12.070;2023-07-28T12:20:04;1.10;;;0.90;;
77332;SDS011;66408;51.326;12.070;2023-07-28T12:22:41;1.30;;;0.90;;
77332;SDS011;66408;51.326;12.070;2023-07-28T12:25:09;1.08;;;0.88;;
77332;SDS011;66408;51.326;12.070;2023-07-28T12:27:37;1.10;;;0.80;;
77332;SDS011;66408;51.326;12.070;2023-07-28T12:30:04;1.35;;;0.93;;
77332;SDS011;66408;51.326;12.070;2023-07-28T12:32:31;1.85;;;0.82;;
77332;SDS011;66408;51.326;12.070;2023-07-28T12:35:00;1.10;;;0.90;;
77332;SDS011;66408;51.326;12.070;2023-07-28T12:37:40;1.20;;;0.98;;
77332;SDS011;66408;51.326;12.070;2023-07-28T12:40:09;0.88;;;0.75;;
77332;SDS011;66408;51.326;12.070;2023-07-28T12:42:57;1.52;;;0.93;;
77332;SDS011;66408;51.326;12.070;2023-07-28T12:45:27;1.55;;;1.00;;
77332;SDS011;66408;51.326;12.070;2023-07-28T12:48:14;1.10;;;0.85;;
77332;SDS011;66408;51.326;12.070;2023-07-28T12:50:43;1.40;;;0.88;;
77332;SDS011;66408;51.326;12.070;2023-07-28T12:53:10;1.80;;;0.90;;
77332;SDS011;66408;51.326;12.070;2023-07-28T12:55:41;1.35;;;0.90;;
77332;SDS011;66408;51.326;12.070;2023-07-28T12:58:26;1.00;;;0.80;;
77332;SDS011;66408;51.326;12.070;2023-07-28T13:00:55;1.15;;;0.90;;
77332;SDS011;66408;51.326;12.070;2023-07-28T13:03:26;1.40;;;1.05;;
77332;SDS011;66408;51.326;12.070;2023-07-28T13:05:53;1.33;;;0.93;;
77332;SDS011;66408;51.326;12.070;2023-07-28T13:08:20;1.10;;;0.82;;
77332;SDS011;66408;51.326;12.070;2023-07-28T13:11:06;1.20;;;0.98;;
77332;SDS011;66408;51.326;12.070;2023-07-28T13:13:36;1.90;;;1.10;;
77332;SDS011;66408;51.326;12.070;2023-07-28T13:16:04;1.40;;;0.90;;
77332;SDS011;66408;51.326;12.070;2023-07-28T13:18:36;1.50;;;1.00;;
77332;SDS011;66408;51.326;12.070;2023-07-28T13:21:02;1.20;;;1.08;;
77332;SDS011;66408;51.326;12.070;2023-07-28T13:23:29;2.67;;;1.08;;
77332;SDS011;66408;51.326;12.070;2023-07-28T13:25:55;1.80;;;1.02;;
77332;SDS011;66408;51.326;12.070;2023-07-28T13:28:22;1.27;;;0.98;;
77332;SDS011;66408;51.326;12.070;2023-07-28T13:30:50;1.73;;;1.00;;
77332;SDS011;66408;51.326;12.070;2023-07-28T13:33:17;1.50;;;1.00;;
77332;SDS011;66408;51.326;12.070;2023-07-28T13:35:43;1.10;;;0.88;;
77332;SDS011;66408;51.326;12.070;2023-07-28T13:38:10;1.40;;;0.93;;
77332;SDS011;66408;51.326;12.070;2023-07-28T13:40:36;1.92;;;1.00;;
77332;SDS011;66408;51.326;12.070;2023-07-28T13:43:04;3.90;;;1.17;;
77332;SDS011;66408;51.326;12.070;2023-07-28T13:45:32;1.65;;;1.05;;
77332;SDS011;66408;51.326;12.070;2023-07-28T13:47:58;1.63;;;1.10;;
77332;SDS011;66408;51.326;12.070;2023-07-28T13:50:25;1.95;;;1.30;;
77332;SDS011;66408;51.326;12.070;2023-07-28T13:53:03;1.45;;;1.15;;
77332;SDS011;66408;51.326;12.070;2023-07-28T13:55:33;1.65;;;1.27;;
77332;SDS011;66408;51.326;12.070;2023-07-28T13:58:02;2.22;;;1.23;;
77332;SDS011;66408;51.326;12.070;2023-07-28T14:00:29;1.23;;;0.90;;
77332;SDS011;66408;51.326;12.070;2023-07-28T14:02:55;1.77;;;1.00;;
77332;SDS011;66408;51.326;12.070;2023-07-28T14:05:22;1.80;;;0.93;;
77332;SDS011;66408;51.326;12.070;2023-07-28T14:07:49;1.48;;;1.20;;
77332;SDS011;66408;51.326;12.070;2023-07-28T14:10:15;1.48;;;1.00;;
77332;SDS011;66408;51.326;12.070;2023-07-28T14:12:42;1.10;;;0.90;;
77332;SDS011;66408;51.326;12.070;2023-07-28T14:15:09;2.03;;;1.00;;
77332;SDS011;66408;51.326;12.070;2023-07-28T14:17:35;1.35;;;1.08;;
77332;SDS011;66408;51.326;12.070;2023-07-28T14:20:02;1.35;;;1.10;;
77332;SDS011;66408;51.326;12.070;2023-07-28T14:22:28;1.60;;;1.10;;
77332;SDS011;66408;51.326;12.070;2023-07-28T14:24:55;1.60;;;1.20;;
77332;SDS011;66408;51.326;12.070;2023-07-28T14:27:22;3.03;;;1.05;;
77332;SDS011;66408;51.326;12.070;2023-07-28T14:29:48;1.42;;;1.10;;
77332;SDS011;66408;51.326;12.070;2023-07-28T14:32:15;1.48;;;1.20;;
77332;SDS011;66408;51.326;12.070;2023-07-28T14:34:41;1.80;;;1.10;;
77332;SDS011;66408;51.326;12.070;2023-07-28T14:37:07;1.60;;;1.00;;
77332;SDS011;66408;51.326;12.070;2023-07-28T14:39:34;1.67;;;1.17;;
77332;SDS011;66408;51.326;12.070;2023-07-28T14:42:01;1.83;;;1.20;;
77332;SDS011;66408;51.326;12.070;2023-07-28T14:44:28;1.80;;;1.10;;
77332;SDS011;66408;51.326;12.070;2023-07-28T14:46:57;1.45;;;1.13;;
77332;SDS011;66408;51.326;12.070;2023-07-28T14:49:23;1.52;;;1.30;;
77332;SDS011;66408;51.326;12.070;2023-07-28T14:51:54;1.63;;;1.27;;
77332;SDS011;66408;51.326;12.070;2023-07-28T14:54:21;1.65;;;1.15;;
77332;SDS011;66408;51.326;12.070;2023-07-28T14:56:47;1.83;;;1.15;;
77332;SDS011;66408;51.326;12.070;2023-07-28T14:59:14;1.70;;;1.30;;
77332;SDS011;66408;51.326;12.070;2023-07-28T15:01:41;1.70;;;1.05;;
77332;SDS011;66408;51.326;12.070;2023-07-28T15:04:08;2.03;;;1.50;;
77332;SDS011;66408;51.326;12.070;2023-07-28T15:06:34;2.28;;;1.15;;
77332;SDS011;66408;51.326;12.070;2023-07-28T15:09:01;1.40;;;1.08;;
77332;SDS011;66408;51.326;12.070;2023-07-28T15:11:27;2.42;;;1.23;;
77332;SDS011;66408;51.326;12.070;2023-07-28T15:13:54;1.75;;;1.05;;